Terminal Aerodrome Forecast
Issued by NWS

Home | Current Version | Previous Version | Text Only | Print | Product List | Glossary On
Versions: 1 2 3 4 5 6 7 8 9 10 11 12 13
000
FTUS44 KEWX 230901 AAA
TAFSSF
TAF AMD
KSSF 230901Z 2309/2406 13003KT P6SM SKC
     FM231000 16003KT P6SM SCT015
      TEMPO 2312/2314 BKN015
     FM231500 16005KT P6SM FEW050 FEW250
     FM232200 13010KT P6SM SCT070 SCT250=

USA.gov is the U.S. government's official web portal to all federal, state and local government web resources and services.